Time;durP1;ratioP1;P1;durP2;ratioP2;P2;SDS_P1;SDS_P2;PMS_P1;PMS_P2;Temp;Humidity;BMP_temperature;BMP_pressure;BME280_temperature;BME280_humidity;BME280_pressure;Samples;Min_cycle;Max_cycle;Signal;HPM_P1;HPM_P2
2023/01/29 00:01:31;;;;;;;20.63;9.90;;;1.40;99.90;;;;;;6254122;23;20692;-93
2023/01/29 00:03:59;;;;;;;19.67;10.70;;;0.20;99.90;;;;;;6254351;23;20401;-94
2023/01/29 00:06:29;;;;;;;21.60;11.70;;;0.20;99.90;;;;;;6253364;23;20411;-95
2023/01/29 00:08:56;;;;;;;19.07;10.37;;;0.80;99.90;;;;;;6253551;23;20456;-94
2023/01/29 00:11:24;;;;;;;18.33;9.97;;;0.60;99.90;;;;;;6258046;23;20433;-95
2023/01/29 00:13:53;;;;;;;18.17;10.00;;;0.20;99.90;;;;;;6256867;23;20599;-94
2023/01/29 00:16:20;;;;;;;17.73;10.50;;;-0.20;99.90;;;;;;6256204;23;20424;-95
2023/01/29 00:18:47;;;;;;;16.07;10.10;;;0.30;99.90;;;;;;6255160;23;20411;-94
2023/01/29 00:21:17;;;;;;;20.00;11.80;;;0.50;99.90;;;;;;6255592;23;20390;-94
2023/01/29 00:23:44;;;;;;;17.07;10.23;;;0.10;99.90;;;;;;6256270;23;20480;-92
2023/01/29 00:26:12;;;;;;;15.37;10.00;;;3.30;99.90;;;;;;6258625;23;20425;-93
2023/01/29 00:28:40;;;;;;;19.40;9.90;;;2.50;99.90;;;;;;6257428;23;20414;-94
2023/01/29 00:31:08;;;;;;;15.93;9.73;;;0.70;99.90;;;;;;6259688;23;20394;-93
2023/01/29 00:33:36;;;;;;;20.63;11.70;;;0.70;99.90;;;;;;6256822;23;20425;-93
2023/01/29 00:36:05;;;;;;;16.40;11.40;;;0.10;99.90;;;;;;6255206;23;20414;-94
2023/01/29 00:38:34;;;;;;;17.67;9.20;;;0.10;99.90;;;;;;6254409;23;20493;-93
2023/01/29 00:46:34;;;;;;;20.40;11.40;;;1.20;99.90;;;;;;6253201;23;20405;-92
2023/01/29 00:49:02;;;;;;;18.00;11.10;;;0.10;99.90;;;;;;6248129;23;20959;-93
2023/01/29 00:51:31;;;;;;;21.67;11.50;;;0.20;99.90;;;;;;6251291;23;20876;-93
2023/01/29 00:53:59;;;;;;;24.57;10.60;;;-0.10;99.90;;;;;;6252625;23;20461;-91
2023/01/29 00:56:27;;;;;;;18.93;11.50;;;0.20;99.90;;;;;;6250582;23;20402;-94
2023/01/29 00:58:54;;;;;;;22.17;10.43;;;0.10;99.90;;;;;;6249053;23;20939;-94
2023/01/29 01:04:03;;;;;;;14.70;9.20;;;0.10;99.90;;;;;;6249223;23;20397;-93
2023/01/29 01:06:30;;;;;;;19.73;10.77;;;0.40;99.90;;;;;;6252716;23;20794;-92
2023/01/29 01:11:42;;;;;;;23.23;9.60;;;-0.40;99.90;;;;;;6251982;23;20397;-93
2023/01/29 01:14:09;;;;;;;20.70;9.97;;;1.60;99.90;;;;;;6252383;23;20439;-92
2023/01/29 01:16:36;;;;;;;17.60;10.63;;;0.00;99.90;;;;;;6252406;23;20899;-95
2023/01/29 01:19:04;;;;;;;16.43;9.70;;;0.30;99.90;;;;;;6253000;23;20413;-93
2023/01/29 01:21:32;;;;;;;22.23;10.40;;;0.10;99.90;;;;;;6253693;23;20492;-93
2023/01/29 01:23:59;;;;;;;18.37;8.80;;;0.20;99.90;;;;;;6253715;23;20503;-93
2023/01/29 01:26:26;;;;;;;15.20;9.00;;;0.00;99.90;;;;;;6253961;23;20394;-94
2023/01/29 01:28:54;;;;;;;20.27;10.70;;;-0.30;99.90;;;;;;6253499;23;20593;-92
2023/01/29 01:31:28;;;;;;;18.07;9.70;;;1.40;99.90;;;;;;6252760;23;20500;-93
2023/01/29 01:33:56;;;;;;;20.53;10.60;;;0.00;99.90;;;;;;6252237;23;20397;-93
2023/01/29 01:36:23;;;;;;;15.60;9.13;;;-0.10;99.90;;;;;;6254427;23;20441;-93
2023/01/29 01:38:50;;;;;;;18.23;9.93;;;-0.40;99.90;;;;;;6253436;23;20393;-89
2023/01/29 01:41:19;;;;;;;15.93;9.93;;;-0.20;99.90;;;;;;6252339;23;20400;-93
2023/01/29 01:43:52;;;;;;;16.00;8.50;;;0.10;99.90;;;;;;6252783;23;20432;-92
2023/01/29 01:46:21;;;;;;;16.47;9.07;;;0.00;99.90;;;;;;6257543;23;20440;-93
2023/01/29 01:48:53;;;;;;;14.93;8.57;;;-0.10;99.90;;;;;;6255928;23;20480;-93
2023/01/29 01:51:22;;;;;;;13.03;8.03;;;1.80;99.90;;;;;;6255768;23;20977;-93
2023/01/29 01:53:54;;;;;;;16.00;8.43;;;0.00;99.90;;;;;;6254052;23;20405;-93
2023/01/29 01:56:26;;;;;;;12.47;8.33;;;0.00;99.90;;;;;;6254110;23;20448;-93
2023/01/29 01:58:59;;;;;;;13.30;8.37;;;-0.20;99.90;;;;;;6255338;23;20405;-93
2023/01/29 02:01:28;;;;;;;14.03;8.50;;;2.20;99.90;;;;;;6254672;23;20418;-93
2023/01/29 02:09:45;;;;;;;13.90;7.87;;;0.90;99.90;;;;;;6255291;23;20429;-92
2023/01/29 02:12:16;;;;;;;12.50;8.70;;;0.00;99.90;;;;;;6255900;23;20393;-92
2023/01/29 02:14:44;;;;;;;15.03;8.37;;;0.00;99.90;;;;;;6255619;23;20408;-91
2023/01/29 02:17:14;;;;;;;13.47;7.00;;;0.00;99.90;;;;;;6256616;23;20413;-93
2023/01/29 02:19:50;;;;;;;12.77;7.10;;;-0.30;99.90;;;;;;6259491;23;20398;-93
2023/01/29 02:22:46;;;;;;;11.13;7.83;;;1.80;99.90;;;;;;6257218;23;20393;-92
2023/01/29 02:25:41;;;;;;;10.63;6.57;;;0.50;99.90;;;;;;6255647;23;20902;-93
2023/01/29 02:28:36;;;;;;;10.67;6.83;;;-0.10;99.90;;;;;;6239920;23;20443;-92
2023/01/29 02:31:09;;;;;;;12.90;8.13;;;0.10;99.90;;;;;;6254363;23;20487;-92
2023/01/29 02:33:48;;;;;;;12.03;6.63;;;-0.20;99.90;;;;;;6255409;23;20644;-92
2023/01/29 02:36:26;;;;;;;12.40;7.20;;;0.30;99.90;;;;;;6257056;23;20397;-92
2023/01/29 02:39:00;;;;;;;10.53;6.63;;;-0.10;99.90;;;;;;6256510;23;20406;-90
2023/01/29 02:41:34;;;;;;;11.23;6.73;;;0.40;99.90;;;;;;6256970;23;20786;-92
2023/01/29 02:44:07;;;;;;;7.57;5.73;;;-0.10;99.90;;;;;;6257474;23;20408;-93
2023/01/29 02:46:39;;;;;;;11.57;6.67;;;1.30;99.90;;;;;;6256898;23;20381;-94
2023/01/29 02:49:11;;;;;;;10.47;6.60;;;1.90;99.90;;;;;;6255299;23;20494;-92
2023/01/29 02:51:44;;;;;;;7.23;5.70;;;2.20;99.90;;;;;;6253575;23;20516;-93
2023/01/29 02:54:17;;;;;;;9.40;6.30;;;0.70;99.90;;;;;;6254924;23;20389;-93
2023/01/29 02:56:51;;;;;;;8.50;5.77;;;0.10;99.90;;;;;;6255346;23;20381;-92
2023/01/29 02:59:24;;;;;;;13.53;6.97;;;0.00;99.90;;;;;;6256110;23;20385;-93
2023/01/29 03:01:55;;;;;;;13.07;6.93;;;-0.30;99.90;;;;;;6255472;23;20416;-92
2023/01/29 03:04:31;;;;;;;12.57;8.10;;;-0.40;99.90;;;;;;6255606;23;20410;-92
2023/01/29 03:07:03;;;;;;;12.47;7.40;;;0.00;99.90;;;;;;6256545;23;20436;-92
2023/01/29 03:09:34;;;;;;;9.33;7.27;;;-0.20;99.90;;;;;;6256895;23;20383;-93
2023/01/29 03:12:17;;;;;;;10.90;6.17;;;-0.20;99.90;;;;;;6257145;23;20440;-93
2023/01/29 03:17:43;;;;;;;8.77;6.90;;;0.00;99.90;;;;;;6253571;23;20413;-92
2023/01/29 03:20:17;;;;;;;10.57;7.40;;;-0.90;99.90;;;;;;6256120;23;20383;-92
2023/01/29 03:22:50;;;;;;;14.87;7.13;;;0.40;99.90;;;;;;6255550;23;20402;-93
2023/01/29 03:33:45;;;;;;;14.30;7.57;;;0.00;99.90;;;;;;6254901;22;20393;-93
2023/01/29 03:36:16;;;;;;;11.37;7.13;;;1.90;99.90;;;;;;6255731;23;20401;-93
2023/01/29 03:38:44;;;;;;;13.97;7.30;;;0.00;99.90;;;;;;6255417;23;20383;-92
2023/01/29 03:41:20;;;;;;;11.23;7.50;;;-0.30;99.90;;;;;;6254935;23;20406;-92
2023/01/29 03:43:54;;;;;;;13.53;7.40;;;2.10;99.90;;;;;;6253704;23;20393;-94
2023/01/29 03:46:28;;;;;;;12.17;6.77;;;0.10;99.90;;;;;;6249983;23;20492;-91
2023/01/29 03:57:54;;;;;;;9.07;5.80;;;0.10;99.90;;;;;;6228424;22;20427;-86
2023/01/29 04:00:26;;;;;;;8.47;6.47;;;0.40;99.90;;;;;;6240866;23;20454;-93
2023/01/29 04:03:06;;;;;;;11.87;7.50;;;0.10;99.90;;;;;;6238383;23;20418;-94
2023/01/29 04:06:04;;;;;;;19.10;8.23;;;0.80;99.90;;;;;;6241343;23;20418;-94
2023/01/29 04:08:35;;;;;;;13.07;8.17;;;0.60;99.90;;;;;;6228264;23;20478;-91
2023/01/29 04:11:08;;;;;;;10.33;6.73;;;-0.30;99.90;;;;;;6214094;23;20442;-92
2023/01/29 04:13:36;;;;;;;13.73;7.30;;;0.40;99.90;;;;;;6215001;23;20403;-89
2023/01/29 04:16:07;;;;;;;12.47;8.00;;;-0.60;99.90;;;;;;6221431;23;20413;-92
2023/01/29 04:21:11;;;;;;;13.70;8.63;;;-0.30;99.90;;;;;;6238424;22;20446;-93
2023/01/29 07:53:03;;;;;;;16.30;7.80;;;1.20;99.90;;;;;;6253589;23;20393;-93
2023/01/29 07:55:37;;;;;;;12.00;7.70;;;0.20;99.90;;;;;;6249046;23;20408;-89
2023/01/29 07:58:04;;;;;;;12.63;7.60;;;-0.30;99.90;;;;;;6244433;23;21130;-79
2023/01/29 08:19:04;;;;;;;12.80;7.80;;;-0.30;99.90;;;;;;6237638;22;20452;-89
2023/01/29 08:21:31;;;;;;;10.70;6.60;;;-0.80;99.90;;;;;;6269853;22;20449;-89
2023/01/29 08:23:58;;;;;;;14.80;6.63;;;-0.40;99.90;;;;;;6258459;22;20437;-90
2023/01/29 08:29:02;;;;;;;12.43;7.20;;;-0.50;99.90;;;;;;6252363;22;20433;-83
2023/01/29 08:39:11;;;;;;;8.97;5.73;;;-0.10;99.90;;;;;;6253243;22;20453;-92
2023/01/29 08:41:38;;;;;;;8.70;6.37;;;0.20;99.90;;;;;;6246264;22;20457;-92
2023/01/29 08:44:06;;;;;;;10.03;5.23;;;0.30;99.90;;;;;;6253647;23;20942;-88
2023/01/29 08:46:33;;;;;;;9.93;5.80;;;1.80;99.90;;;;;;6250498;23;20413;-92
2023/01/29 08:49:00;;;;;;;12.43;6.37;;;0.50;99.90;;;;;;6251859;23;20437;-92
2023/01/29 08:51:27;;;;;;;9.60;6.30;;;-0.50;99.90;;;;;;6251208;23;20437;-93
2023/01/29 08:53:54;;;;;;;9.90;5.63;;;0.30;99.90;;;;;;6253176;23;20441;-93
2023/01/29 08:56:21;;;;;;;11.17;6.20;;;0.90;99.90;;;;;;6255295;23;20413;-93
2023/01/29 08:58:48;;;;;;;10.90;6.77;;;0.10;99.90;;;;;;6256215;23;20418;-92
2023/01/29 09:01:16;;;;;;;13.93;5.80;;;-0.20;99.90;;;;;;6255123;23;20406;-93
2023/01/29 09:03:44;;;;;;;7.90;4.77;;;1.60;99.90;;;;;;6253656;23;20406;-89
2023/01/29 09:06:12;;;;;;;6.20;5.37;;;0.70;99.90;;;;;;6251643;23;20926;-92
2023/01/29 09:08:39;;;;;;;7.27;5.93;;;1.70;99.90;;;;;;6247317;23;20457;-90
2023/01/29 09:11:06;;;;;;;10.00;6.27;;;0.00;99.90;;;;;;6250032;22;20464;-88
2023/01/29 09:13:34;;;;;;;13.03;7.50;;;-0.10;99.90;;;;;;6263015;22;20433;-93
2023/01/29 09:19:15;;;;;;;8.53;6.67;;;0.30;99.90;;;;;;6267728;22;20437;-92
2023/01/29 09:21:51;;;;;;;14.20;7.67;;;1.20;99.90;;;;;;6243500;23;20409;-92
2023/01/29 09:24:18;;;;;;;10.87;6.70;;;1.40;99.90;;;;;;6241344;23;20452;-82
2023/01/29 09:26:45;;;;;;;10.53;8.20;;;0.40;99.90;;;;;;6245681;23;20828;-91
2023/01/29 09:39:35;;;;;;;14.40;10.53;;;-0.30;99.90;;;;;;6263730;22;20443;-86
2023/01/29 09:47:16;;;;;;;16.40;9.00;;;-0.50;99.90;;;;;;6251697;22;20458;-83
2023/01/29 09:49:47;;;;;;;13.63;8.73;;;-0.60;99.90;;;;;;6270925;22;20467;-81
2023/01/29 09:57:31;;;;;;;21.00;11.13;;;-0.60;99.90;;;;;;6262422;22;20471;-87
2023/01/29 09:59:59;;;;;;;14.60;8.90;;;-0.60;99.90;;;;;;6251332;23;20489;-80
2023/01/29 10:05:32;;;;;;;16.73;10.33;;;-0.20;99.90;;;;;;6266723;23;20464;-89
2023/01/29 10:08:28;;;;;;;71.00;21.93;;;-0.40;99.90;;;;;;6254837;22;20420;-75
2023/01/29 10:11:01;;;;;;;20.90;10.67;;;0.10;99.90;;;;;;6245919;23;20444;-91
2023/01/29 10:13:40;;;;;;;17.80;9.83;;;0.30;99.90;;;;;;6260259;23;20440;-91
2023/01/29 10:21:46;;;;;;;17.13;8.90;;;0.30;99.90;;;;;;6259211;22;20432;-86
2023/01/29 10:24:22;;;;;;;17.00;9.17;;;0.70;99.90;;;;;;6240703;23;20420;-78
2023/01/29 10:26:49;;;;;;;13.00;9.53;;;0.20;99.90;;;;;;6238440;23;20406;-84
2023/01/29 10:29:20;;;;;;;14.30;9.13;;;-0.10;99.90;;;;;;6238074;23;20421;-82
2023/01/29 10:31:51;;;;;;;15.50;9.27;;;-0.30;99.90;;;;;;6238836;23;20447;-84
2023/01/29 10:34:27;;;;;;;15.00;10.23;;;-0.40;99.90;;;;;;6236801;23;20792;-79
2023/01/29 10:37:17;;;;;;;16.90;8.93;;;-0.50;99.90;;;;;;6234308;23;20624;-80
2023/01/29 10:39:44;;;;;;;17.57;10.70;;;0.00;99.90;;;;;;6234922;23;20831;-80
2023/01/29 10:42:22;;;;;;;14.63;8.57;;;0.30;99.90;;;;;;6235145;23;20908;-82
2023/01/29 10:45:07;;;;;;;15.80;8.80;;;0.90;99.90;;;;;;6235690;23;20483;-79
2023/01/29 10:48:03;;;;;;;13.77;8.63;;;0.90;99.90;;;;;;6236302;23;20421;-80
2023/01/29 10:50:50;;;;;;;18.77;10.37;;;0.00;99.90;;;;;;6237709;23;20421;-81
2023/01/29 10:53:32;;;;;;;20.63;11.30;;;-0.60;99.90;;;;;;6240345;23;20420;-83
2023/01/29 10:56:16;;;;;;;15.37;9.97;;;-0.20;99.90;;;;;;6243713;23;20545;-80
2023/01/29 10:58:48;;;;;;;15.33;11.73;;;-0.40;99.90;;;;;;6241377;23;20398;-82
2023/01/29 11:01:17;;;;;;;21.60;12.20;;;-0.60;99.90;;;;;;6244148;23;20473;-84
2023/01/29 11:03:45;;;;;;;17.33;10.10;;;0.00;99.90;;;;;;6244674;23;20524;-87
2023/01/29 11:06:29;;;;;;;17.50;9.87;;;-0.10;99.90;;;;;;6247598;23;20915;-83
2023/01/29 11:09:28;;;;;;;13.80;9.63;;;0.70;99.90;;;;;;6181708;23;20409;-84
2023/01/29 11:12:03;;;;;;;13.80;9.20;;;0.40;99.90;;;;;;6238993;23;20432;-84
2023/01/29 11:14:40;;;;;;;15.63;9.63;;;0.60;99.90;;;;;;6239733;23;20422;-89
2023/01/29 11:17:17;;;;;;;17.80;9.87;;;0.90;99.90;;;;;;6245984;23;20508;-89
2023/01/29 11:19:51;;;;;;;15.63;9.70;;;0.90;99.90;;;;;;6233319;22;20477;-85
2023/01/29 11:22:19;;;;;;;11.00;8.33;;;1.80;99.90;;;;;;6212404;23;20415;-85
2023/01/29 11:24:47;;;;;;;12.87;9.10;;;1.40;99.90;;;;;;6213740;23;20481;-86
2023/01/29 11:27:16;;;;;;;12.93;7.73;;;2.10;99.90;;;;;;6211870;23;20434;-84
2023/01/29 11:29:45;;;;;;;13.93;10.77;;;1.10;99.90;;;;;;6210633;23;20422;-82
2023/01/29 11:32:26;;;;;;;16.27;9.50;;;0.30;99.90;;;;;;6210401;23;20456;-85
2023/01/29 11:34:58;;;;;;;17.40;9.70;;;-0.40;99.90;;;;;;6212365;23;20670;-86
2023/01/29 11:37:32;;;;;;;18.30;11.70;;;0.50;99.90;;;;;;6209913;23;20442;-85
2023/01/29 11:39:59;;;;;;;17.70;11.50;;;2.30;99.90;;;;;;6211241;23;20426;-83
2023/01/29 11:42:32;;;;;;;14.70;9.07;;;0.50;99.90;;;;;;6212224;23;20927;-85
2023/01/29 11:45:00;;;;;;;14.60;8.37;;;0.20;99.90;;;;;;6211908;23;20480;-87
2023/01/29 11:47:30;;;;;;;10.67;7.40;;;1.00;99.90;;;;;;6210535;23;21141;-73
2023/01/29 11:49:59;;;;;;;14.43;8.90;;;0.40;99.90;;;;;;6207488;23;20427;-73
2023/01/29 11:52:34;;;;;;;17.47;11.07;;;0.60;99.90;;;;;;6207725;23;20477;-81
2023/01/29 11:55:05;;;;;;;14.13;9.50;;;0.50;99.90;;;;;;6211819;23;20391;-81
2023/01/29 11:57:35;;;;;;;11.60;7.97;;;0.30;99.90;;;;;;6210855;23;20402;-89
2023/01/29 12:00:05;;;;;;;13.67;9.17;;;0.50;99.90;;;;;;6209754;23;20480;-87
2023/01/29 12:02:37;;;;;;;12.57;9.47;;;0.40;99.90;;;;;;6213952;23;20391;-78
2023/01/29 12:05:14;;;;;;;14.93;9.30;;;0.30;99.90;;;;;;6217339;23;20413;-81
2023/01/29 12:19:16;;;;;;;14.77;10.30;;;0.40;99.90;;;;;;6252241;22;21037;-82
2023/01/29 12:24:49;;;;;;;13.73;9.07;;;0.70;99.90;;;;;;6247606;22;20405;-88
2023/01/29 12:27:23;;;;;;;16.87;11.10;;;2.10;99.90;;;;;;6242699;23;20424;-87
2023/01/29 12:29:58;;;;;;;17.03;11.27;;;1.00;99.90;;;;;;6243290;23;20723;-85
2023/01/29 14:21:27;;;;;;;13.43;8.07;;;-0.30;99.90;;;;;;6262591;22;20433;-82
2023/01/29 14:27:24;;;;;;;11.37;7.20;;;-0.50;99.90;;;;;;6254449;22;21153;-80
2023/01/29 14:30:03;;;;;;;12.77;7.57;;;-0.20;99.90;;;;;;6241499;23;20389;-79
2023/01/29 14:32:41;;;;;;;10.40;6.90;;;-0.20;99.90;;;;;;6253899;23;20494;-81
2023/01/29 14:35:29;;;;;;;12.93;7.67;;;0.00;99.90;;;;;;6252902;23;20445;-83
2023/01/29 14:38:01;;;;;;;10.80;7.30;;;-0.40;99.90;;;;;;6251463;22;20421;-81
2023/01/29 14:40:29;;;;;;;13.90;9.43;;;-0.40;99.90;;;;;;6251183;23;20417;-82
2023/01/29 14:43:02;;;;;;;9.63;6.43;;;-0.30;99.90;;;;;;6250182;23;20455;-80
2023/01/29 14:45:31;;;;;;;10.13;8.00;;;-0.40;99.90;;;;;;6256714;23;20411;-84
2023/01/29 14:48:01;;;;;;;10.70;7.43;;;0.30;99.90;;;;;;6253809;23;20484;-82
2023/01/29 14:53:43;;;;;;;11.17;7.97;;;-0.10;99.90;;;;;;6235343;22;20489;-82
2023/01/29 14:56:15;;;;;;;13.13;8.93;;;0.20;99.90;;;;;;6241678;23;20424;-84
2023/01/29 14:58:44;;;;;;;11.10;7.50;;;1.60;99.90;;;;;;6253159;23;20441;-82
2023/01/29 15:01:25;;;;;;;22.10;14.40;;;0.30;99.90;;;;;;6250602;22;20957;-81
2023/01/29 15:03:56;;;;;;;11.37;8.77;;;0.10;99.90;;;;;;6244405;23;20401;-86
2023/01/29 16:27:13;;;;;;;18.50;9.07;;;-0.70;99.90;;;;;;6255928;22;20442;-82
2023/01/29 16:35:19;;;;;;;16.30;10.20;;;-0.70;99.90;;;;;;6263766;22;20453;-80
2023/01/29 16:40:41;;;;;;;15.60;9.33;;;-0.60;99.90;;;;;;6254774;23;20402;-81
2023/01/29 16:43:46;;;;;;;18.33;10.77;;;-0.60;99.90;;;;;;6254138;22;20384;-79
2023/01/29 16:49:49;;;;;;;13.10;9.97;;;-0.70;99.90;;;;;;6244056;23;20430;-78
2023/01/29 16:52:21;;;;;;;15.13;9.37;;;-0.80;99.90;;;;;;6248689;22;20578;-80
2023/01/29 16:58:35;;;;;;;16.17;9.80;;;-1.30;99.90;;;;;;6195200;23;20509;-81
2023/01/29 17:01:15;;;;;;;16.47;12.37;;;-0.60;99.90;;;;;;6253322;23;20497;-80
2023/01/29 17:04:06;;;;;;;15.07;9.97;;;-1.30;99.90;;;;;;6253094;23;20404;-79
2023/01/29 17:06:34;;;;;;;18.67;11.30;;;-0.80;99.90;;;;;;6251920;23;20410;-82
2023/01/29 17:17:34;;;;;;;22.10;11.10;;;-0.80;99.90;;;;;;6233663;22;20495;-80
2023/01/29 17:20:12;;;;;;;24.03;12.70;;;-0.20;99.90;;;;;;6197162;23;20462;-79
2023/01/29 17:22:39;;;;;;;20.80;12.50;;;-0.90;99.90;;;;;;6207032;23;20755;-80
2023/01/29 17:25:32;;;;;;;18.63;10.63;;;-0.80;99.90;;;;;;6215826;23;20718;-82
2023/01/29 17:28:05;;;;;;;19.93;9.57;;;-0.50;99.90;;;;;;6216695;23;20390;-82
2023/01/29 17:30:36;;;;;;;16.30;10.23;;;-0.70;99.90;;;;;;6208416;23;20452;-81
2023/01/29 17:33:14;;;;;;;16.47;10.07;;;1.20;99.90;;;;;;6210094;23;20445;-82
2023/01/29 17:35:50;;;;;;;20.17;11.50;;;-0.60;99.90;;;;;;6209000;23;20756;-81
2023/01/29 17:38:21;;;;;;;18.90;10.70;;;-0.60;99.90;;;;;;6209305;23;20421;-79
2023/01/29 17:40:53;;;;;;;20.77;11.70;;;-0.90;99.90;;;;;;6210611;23;20593;-77
2023/01/29 17:43:20;;;;;;;20.83;12.20;;;-0.90;99.90;;;;;;6213346;23;20403;-77
2023/01/29 17:45:48;;;;;;;21.37;10.63;;;-0.90;99.90;;;;;;6212047;23;20526;-79
2023/01/29 17:48:40;;;;;;;17.07;9.87;;;-0.60;99.90;;;;;;6204448;23;20549;-80
2023/01/29 17:51:14;;;;;;;12.20;8.23;;;-0.60;99.90;;;;;;6181940;23;20400;-78
2023/01/29 17:54:15;;;;;;;20.10;11.40;;;-1.10;99.90;;;;;;6181332;23;20458;-79
2023/01/29 17:56:57;;;;;;;17.17;10.93;;;-0.90;99.90;;;;;;6179857;23;20418;-79
2023/01/29 17:59:31;;;;;;;18.17;10.23;;;-0.10;99.90;;;;;;6229823;22;20504;-80
2023/01/29 18:12:21;;;;;;;15.63;11.23;;;-0.80;99.90;;;;;;6219389;22;20522;-81
2023/01/29 18:14:49;;;;;;;17.03;10.83;;;-0.70;99.90;;;;;;6269891;22;20820;-78
2023/01/29 18:17:21;;;;;;;15.60;10.50;;;-0.90;99.90;;;;;;6273683;22;20495;-79
2023/01/29 18:19:48;;;;;;;20.00;11.70;;;-1.20;99.90;;;;;;6271892;22;20401;-79
2023/01/29 18:22:16;;;;;;;20.07;12.07;;;-1.00;99.90;;;;;;6273872;22;20440;-78
2023/01/29 18:24:44;;;;;;;20.93;13.80;;;-1.10;99.90;;;;;;6276055;22;20463;-79
2023/01/29 18:27:11;;;;;;;23.30;12.07;;;-1.10;99.90;;;;;;6272253;22;20770;-78
2023/01/29 18:29:41;;;;;;;17.07;11.40;;;-1.00;99.90;;;;;;6275394;22;20416;-78
2023/01/29 18:32:09;;;;;;;17.07;10.63;;;-1.10;99.90;;;;;;6274300;22;20521;-78
2023/01/29 18:34:36;;;;;;;19.07;10.73;;;-1.00;99.90;;;;;;6272922;22;20747;-78
2023/01/29 18:37:02;;;;;;;23.63;14.17;;;-1.00;99.90;;;;;;6272098;22;20667;-79
2023/01/29 18:39:29;;;;;;;18.73;9.73;;;-1.00;99.90;;;;;;6273157;22;20411;-80
2023/01/29 18:41:56;;;;;;;18.50;11.60;;;-0.80;99.90;;;;;;6272410;22;20427;-79
2023/01/29 18:44:23;;;;;;;16.40;9.97;;;-0.90;99.90;;;;;;6270624;22;20454;-76
2023/01/29 18:46:51;;;;;;;17.87;10.80;;;-0.90;99.90;;;;;;6270634;22;20425;-79
2023/01/29 18:49:19;;;;;;;18.43;10.23;;;-0.90;99.90;;;;;;6244458;22;20450;-80
